CheckWX is a tool to help pilots better visualize weather data.  It is not intended as a substitute for an official pre-flight weather briefing.

17:00:02 UTC

KMUI METAR
Muir AAF (Fort Indiantown Gap) Airport
Fort Indiantown Gap(Annville), Pennsylvania, USA
Current

1 hour ago

KMUI 161558Z 00000KT 10SM -SHRA FEW065 BKN100 24/16 A3006 RMK AO2A SLP180
Observed
Sep-16 @ 15:58 UTC
Visibility
10 SM
Flight Rules
VFR
Conditions
Light Rain
Cloud Levels
  • Few at 6,500' AGL
  • Broken at 10,000' AGL
Temperature
24°C / 75°F
Dewpoint
16°C / 61°F
Humidity
61%
Altimeter
30.06" Hg
Pressure
1017.92 hPa
Previous

2 hours ago

KMUI 161456Z 00000KT 10SM FEW065 SCT100 BKN130 23/16 A3008 RMK AO2A SLP187 T02280163 58002
Observed
Sep-16 @ 14:56 UTC
Visibility
10 SM
Flight Rules
VFR
Cloud Levels
  • Few at 6,500' AGL
  • Scattered at 10,000' AGL
  • Broken at 13,000' AGL
Temperature
23°C / 73°F
Dewpoint
16°C / 61°F
Humidity
65%
Altimeter
30.08" Hg
Pressure
1018.62 hPa
Previous

3 hours ago

KMUI 161356Z 19003KT 10SM BKN080 BKN100 21/15 A3008 RMK AO2A SLP187 T02060154
Observed
Sep-16 @ 13:56 UTC
Wind
  • 190° at 3 KTS
Visibility
10 SM
Flight Rules
VFR
Cloud Levels
  • Broken at 8,000' AGL
  • Broken at 10,000' AGL
Temperature
21°C / 70°F
Dewpoint
15°C / 59°F
Humidity
69%
Altimeter
30.08" Hg
Pressure
1018.62 hPa